| time (UTC) | temp C | wind direction | speed KPH | gust KPH | rain 1hr cm | rain 24hr cm | rain mn cm | humidity % | barometer mb |
| 20260506113909 | 16 | 46 | 0.0 | 1.6 | 0.00 | 0.00 | 0.00 | 86 | 1015.3 |
| 20260506113406 | 16 | 81 | 0.0 | 4.8 | 0.00 | 0.00 | 0.00 | 86 | 1015.3 |
| 20260506113003 | 16 | 177 | 0.0 | 0.0 | 0.00 | 0.00 | 0.00 | 87 | 1011.8 |
| 20260506112903 | 16 | 97 | 0.0 | 1.6 | 0.00 | 0.00 | 0.00 | 87 | 1015.2 |
| 20260506112400 | 16 | 64 | 0.0 | 0.0 | 0.00 | 0.00 | 0.00 | 87 | 1015.0 |
| 20260506111858 | 16 | 81 | 0.0 | 0.0 | 0.00 | 0.00 | 0.00 | 87 | 1014.7 |
| 20260506111356 | 15 | 90 | 0.0 | 0.0 | 0.00 | 0.00 | 0.00 | 87 | 1014.8 |
| 20260506110853 | 15 | 71 | 0.0 | 0.0 | 0.00 | 0.00 | 0.00 | 87 | 1014.5 |
| 20260506110350 | 15 | 88 | 0.0 | 3.2 | 0.00 | 0.00 | 0.00 | 87 | 1014.5 |
| 20260506110003 | 25 | 0 | 0.0 | 0.0 | 0.00 | 0.00 | 0.00 | 43 | 1010.9 |
| 20260506105847 | 15 | 86 | 0.0 | 0.0 | 0.00 | 0.00 | 0.00 | 87 | 1014.5 |
| 20260506105343 | 15 | 79 | 0.0 | 0.0 | 0.00 | 0.00 | 0.00 | 87 | 1014.2 |
| 20260506104841 | 15 | 84 | 0.0 | 0.0 | 0.00 | 0.00 | 0.00 | 87 | 1014.5 |
| 20260506104338 | 15 | 76 | 0.0 | 0.0 | 0.00 | 0.00 | 0.00 | 88 | 1014.3 |
| 20260506103836 | 15 | 82 | 0.0 | 0.0 | 0.00 | 0.00 | 0.00 | 88 | 1014.5 |
| 20260506103333 | 15 | 78 | 0.0 | 0.0 | 0.00 | 0.00 | 0.00 | 88 | 1014.4 |
| 20260506103003 | 25 | 0 | 0.0 | 0.0 | 0.00 | 0.00 | 0.00 | 43 | 1011.0 |
| 20260506102830 | 15 | 78 | 0.0 | 0.0 | 0.00 | 0.00 | 0.00 | 88 | 1014.4 |
| 20260506102328 | 15 | 78 | 0.0 | 0.0 | 0.00 | 0.00 | 0.00 | 88 | 1014.5 |
| 20260506101825 | 15 | 87 | 0.0 | 0.0 | 0.00 | 0.00 | 0.00 | 88 | 1014.4 |
| 20260506101321 | 15 | 75 | 0.0 | 0.0 | 0.00 | 0.00 | 0.00 | 88 | 1014.4 |
| 20260506100819 | 15 | 62 | 0.0 | 1.6 | 0.00 | 0.00 | 0.00 | 87 | 1014.3 |
| 20260506100317 | 15 | 88 | 0.0 | 1.6 | 0.00 | 0.00 | 0.00 | 87 | 1014.2 |
| 20260506095815 | 15 | 76 | 0.0 | 0.0 | 0.00 | 0.00 | 0.00 | 87 | 1014.2 |
| 20260506095312 | 15 | 80 | 0.0 | 0.0 | 0.00 | 0.00 | 0.00 | 86 | 1014.2 |
| 20260506094809 | 15 | 105 | 0.0 | 0.0 | 0.00 | 0.00 | 0.00 | 86 | 1014.2 |
| 20260506094307 | 15 | 70 | 1.6 | 1.6 | 0.00 | 0.00 | 0.00 | 86 | 1014.1 |
| 20260506093805 | 16 | 86 | 0.0 | 0.0 | 0.00 | 0.00 | 0.00 | 85 | 1014.0 |
| 20260506093302 | 16 | 82 | 0.0 | 0.0 | 0.00 | 0.00 | 0.00 | 85 | 1014.2 |
| 20260506093004 | 25 | 0 | 0.0 | 0.0 | 0.00 | 0.00 | 0.00 | 43 | 1010.9 |
| 20260506092800 | 16 | 90 | 0.0 | 1.6 | 0.00 | 0.00 | 0.00 | 85 | 1014.4 |
| 20260506092258 | 16 | 78 | 0.0 | 0.0 | 0.00 | 0.00 | 0.00 | 85 | 1014.4 |
| 20260506091755 | 16 | 79 | 0.0 | 0.0 | 0.00 | 0.00 | 0.00 | 85 | 1014.3 |
| 20260506091252 | 16 | 71 | 0.0 | 0.0 | 0.00 | 0.00 | 0.00 | 85 | 1014.1 |
| 20260506090750 | 16 | 71 | 0.0 | 0.0 | 0.00 | 0.00 | 0.00 | 85 | 1014.6 |
| 20260506090247 | 16 | 75 | 0.0 | 0.0 | 0.00 | 0.00 | 0.00 | 85 | 1014.6 |
| 20260506090003 | 25 | 0 | 0.0 | 0.0 | 0.00 | 0.00 | 0.00 | 43 | 1011.2 |
| 20260506085743 | 16 | 75 | 0.0 | 0.0 | 0.00 | 0.00 | 0.00 | 84 | 1014.6 |
| 20260506085240 | 16 | 75 | 0.0 | 0.0 | 0.00 | 0.00 | 0.00 | 84 | 1014.6 |
| 20260506084736 | 16 | 74 | 0.0 | 0.0 | 0.00 | 0.00 | 0.00 | 83 | 1014.9 |
| 20260506084233 | 16 | 70 | 0.0 | 0.0 | 0.00 | 0.00 | 0.00 | 83 | 1014.8 |
| 20260506083730 | 16 | 70 | 0.0 | 0.0 | 0.00 | 0.00 | 0.00 | 82 | 1014.8 |
| 20260506083228 | 16 | 86 | 0.0 | 0.0 | 0.00 | 0.00 | 0.00 | 82 | 1014.8 |
| 20260506083003 | 25 | 0 | 0.0 | 0.0 | 0.00 | 0.00 | 0.00 | 43 | 1011.4 |
| 20260506082725 | 16 | 86 | 0.0 | 0.0 | 0.00 | 0.00 | 0.00 | 82 | 1014.9 |
| 20260506082220 | 16 | 87 | 0.0 | 0.0 | 0.00 | 0.00 | 0.00 | 82 | 1014.9 |
| 20260506081718 | 16 | 87 | 0.0 | 1.6 | 0.00 | 0.00 | 0.00 | 82 | 1014.9 |
| 20260506081215 | 16 | 80 | 0.0 | 0.0 | 0.00 | 0.00 | 0.00 | 81 | 1014.8 |
| 20260506080713 | 17 | 71 | 0.0 | 0.0 | 0.00 | 0.00 | 0.00 | 81 | 1014.8 |
| 20260506080209 | 17 | 72 | 0.0 | 0.0 | 0.00 | 0.00 | 0.00 | 81 | 1014.9 |
| 20260506073154 | 17 | 84 | 0.0 | 0.0 | 0.00 | 0.00 | 0.00 | 80 | 1015.0 |
| 20260506073003 | 25 | 0 | 0.0 | 0.0 | 0.00 | 0.00 | 0.00 | 43 | 1011.4 |
| 20260506072650 | 17 | 96 | 0.0 | 0.0 | 0.00 | 0.00 | 0.00 | 79 | 1014.9 |
| 20260506072148 | 17 | 81 | 0.0 | 3.2 | 0.00 | 0.00 | 0.00 | 79 | 1014.8 |
| 20260506071645 | 17 | 89 | 0.0 | 1.6 | 0.00 | 0.00 | 0.00 | 79 | 1014.9 |
| 20260506071143 | 17 | 73 | 0.0 | 3.2 | 0.00 | 0.00 | 0.00 | 79 | 1014.9 |
| 20260506070640 | 17 | 73 | 0.0 | 1.6 | 0.00 | 0.00 | 0.00 | 78 | 1014.9 |
| 20260506070136 | 17 | 85 | 0.0 | 0.0 | 0.00 | 0.00 | 0.00 | 78 | 1014.8 |
| 20260506062114 | 17 | 91 | 0.0 | 0.0 | 0.00 | 0.00 | 0.00 | 77 | 1014.6 |
| 20260506061609 | 17 | 76 | 0.0 | 1.6 | 0.00 | 0.00 | 0.00 | 77 | 1014.3 |
| 20260506061108 | 17 | 77 | 0.0 | 1.6 | 0.00 | 0.00 | 0.00 | 76 | 1014.4 |
| 20260506060606 | 17 | 86 | 0.0 | 0.0 | 0.00 | 0.00 | 0.00 | 76 | 1014.5 |
| 20260506051035 | 17 | 95 | 1.6 | 1.6 | 0.00 | 0.00 | 0.00 | 74 | 1015.0 |
| 20260506050532 | 17 | 84 | 0.0 | 1.6 | 0.00 | 0.00 | 0.00 | 73 | 1015.0 |
| 20260506045023 | 17 | 80 | 0.0 | 1.6 | 0.00 | 0.00 | 0.00 | 72 | 1015.4 |
| 20260506044521 | 17 | 86 | 0.0 | 1.6 | 0.00 | 0.00 | 0.00 | 72 | 1015.4 |
| 20260506044018 | 17 | 82 | 0.0 | 1.6 | 0.00 | 0.00 | 0.00 | 71 | 1015.4 |
| 20260506043514 | 17 | 87 | 0.0 | 0.0 | 0.00 | 0.00 | 0.00 | 71 | 1015.6 |
| 20260506043013 | 17 | 92 | 0.0 | 0.0 | 0.00 | 0.00 | 0.00 | 70 | 1015.2 |
| 20260506043003 | 25 | 0 | 0.0 | 0.0 | 0.00 | 0.00 | 0.00 | 43 | 1012.0 |
| 20260506042512 | 17 | 79 | 0.0 | 1.6 | 0.00 | 0.00 | 0.00 | 70 | 1015.2 |
| 20260506042009 | 17 | 88 | 1.6 | 3.2 | 0.00 | 0.00 | 0.00 | 70 | 1015.0 |
| 20260506041508 | 16 | 94 | 1.6 | 4.8 | 0.00 | 0.00 | 0.00 | 71 | 1015.0 |
| 20260506041004 | 16 | 87 | 0.0 | 0.0 | 0.00 | 0.00 | 0.00 | 73 | 1015.0 |
| 20260506040502 | 16 | 85 | 0.0 | 0.0 | 0.00 | 0.00 | 0.00 | 72 | 1014.8 |
| 20260506040003 | 25 | 0 | 0.0 | 0.0 | 0.00 | 0.00 | 0.00 | 43 | 1011.5 |
| 20260506035957 | 16 | 90 | 0.0 | 0.0 | 0.00 | 0.00 | 0.00 | 72 | 1014.9 |
| 20260506035455 | 16 | 103 | 0.0 | 0.0 | 0.00 | 0.00 | 0.00 | 72 | 1014.7 |
| 20260506034951 | 16 | 94 | 0.0 | 1.6 | 0.00 | 0.00 | 0.00 | 72 | 1014.7 |
| 20260506034449 | 16 | 91 | 0.0 | 1.6 | 0.00 | 0.00 | 0.00 | 72 | 1014.9 |
| 20260506033946 | 16 | 87 | 0.0 | 0.0 | 0.00 | 0.00 | 0.00 | 72 | 1014.7 |
| 20260506033443 | 16 | 86 | 0.0 | 0.0 | 0.00 | 0.00 | 0.00 | 72 | 1014.9 |
| 20260506033004 | 25 | 0 | 0.0 | 0.0 | 0.00 | 0.00 | 0.00 | 43 | 1011.5 |
| 20260506032940 | 16 | 83 | 0.0 | 1.6 | 0.00 | 0.00 | 0.00 | 72 | 1014.9 |
| 20260506032437 | 16 | 69 | 0.0 | 1.6 | 0.00 | 0.00 | 0.00 | 71 | 1014.8 |
| 20260506031934 | 16 | 56 | 1.6 | 1.6 | 0.00 | 0.00 | 0.00 | 70 | 1014.9 |
| 20260506031431 | 16 | 36 | 1.6 | 1.6 | 0.00 | 0.00 | 0.00 | 71 | 1014.9 |
| 20260506030929 | 17 | 84 | 0.0 | 0.0 | 0.00 | 0.00 | 0.00 | 71 | 1014.7 |
| 20260506030426 | 17 | 69 | 0.0 | 1.6 | 0.00 | 0.00 | 0.00 | 70 | 1014.8 |
| 20260506030004 | 25 | 0 | 0.0 | 0.0 | 0.00 | 0.00 | 0.00 | 43 | 1011.5 |
| 20260506025923 | 17 | 91 | 0.0 | 1.6 | 0.00 | 0.00 | 0.00 | 70 | 1015.0 |
| 20260506025420 | 17 | 93 | 0.0 | 0.0 | 0.00 | 0.00 | 0.00 | 71 | 1014.9 |
| 20260506024916 | 17 | 93 | 0.0 | 1.6 | 0.00 | 0.00 | 0.00 | 70 | 1014.9 |
| 20260506024414 | 17 | 111 | 1.6 | 1.6 | 0.00 | 0.00 | 0.00 | 69 | 1015.0 |
| 20260506023910 | 17 | 84 | 0.0 | 0.0 | 0.00 | 0.00 | 0.00 | 67 | 1015.0 |
| 20260506023407 | 17 | 85 | 0.0 | 1.6 | 0.00 | 0.00 | 0.00 | 67 | 1014.7 |
| 20260506023004 | 25 | 0 | 0.0 | 0.0 | 0.00 | 0.00 | 0.00 | 43 | 1011.5 |
| 20260506022903 | 18 | 18 | 0.0 | 3.2 | 0.00 | 0.00 | 0.00 | 66 | 1014.9 |
| 20260506022401 | 18 | 93 | 0.0 | 1.6 | 0.00 | 0.00 | 0.00 | 66 | 1014.7 |
| 20260506021859 | 18 | 74 | 0.0 | 1.6 | 0.00 | 0.00 | 0.00 | 64 | 1014.6 |
| 20260506021355 | 18 | 173 | 1.6 | 3.2 | 0.00 | 0.00 | 0.00 | 66 | 1014.8 |
| 20260506020852 | 18 | 99 | 1.6 | 1.6 | 0.00 | 0.00 | 0.00 | 68 | 1014.6 |
| 20260506020350 | 18 | 92 | 0.0 | 0.0 | 0.00 | 0.00 | 0.00 | 69 | 1014.5 |
| 20260506020004 | 25 | 0 | 0.0 | 0.0 | 0.00 | 0.00 | 0.00 | 43 | 1011.3 |
| 20260506015847 | 18 | 91 | 0.0 | 1.6 | 0.00 | 0.00 | 0.00 | 69 | 1014.4 |
| 20260506015345 | 18 | 82 | 0.0 | 0.0 | 0.00 | 0.00 | 0.00 | 69 | 1014.5 |
| 20260506014841 | 18 | 95 | 0.0 | 0.0 | 0.00 | 0.00 | 0.00 | 69 | 1014.5 |
| 20260506014338 | 18 | 95 | 0.0 | 1.6 | 0.00 | 0.00 | 0.00 | 68 | 1014.6 |
| 20260506013835 | 18 | 95 | 0.0 | 1.6 | 0.00 | 0.00 | 0.00 | 68 | 1014.6 |
| 20260506013332 | 18 | 93 | 0.0 | 0.0 | 0.00 | 0.00 | 0.00 | 68 | 1014.7 |
| 20260506013002 | 25 | 0 | 0.0 | 0.0 | 0.00 | 0.00 | 0.00 | 43 | 1011.4 |
| 20260506012828 | 18 | 94 | 0.0 | 1.6 | 0.00 | 0.00 | 0.00 | 68 | 1014.6 |
| 20260506012326 | 18 | 87 | 0.0 | 0.0 | 0.00 | 0.00 | 0.00 | 66 | 1014.6 |
| 20260506011823 | 19 | 87 | 0.0 | 1.6 | 0.00 | 0.00 | 0.00 | 66 | 1014.6 |
| 20260506011320 | 19 | 87 | 0.0 | 0.0 | 0.00 | 0.00 | 0.00 | 66 | 1014.5 |
| 20260506010817 | 19 | 87 | 0.0 | 0.0 | 0.00 | 0.00 | 0.00 | 65 | 1014.5 |
| 20260506010315 | 20 | 87 | 0.0 | 0.0 | 0.00 | 0.00 | 0.00 | 64 | 1014.6 |
| 20260506005811 | 20 | 87 | 0.0 | 0.0 | 0.00 | 0.00 | 0.00 | 64 | 1014.5 |
| 20260506005308 | 20 | 87 | 0.0 | 0.0 | 0.00 | 0.00 | 0.00 | 62 | 1014.3 |
| 20260506004805 | 20 | 87 | 0.0 | 0.0 | 0.00 | 0.00 | 0.00 | 60 | 1014.5 |
| 20260506004303 | 21 | 87 | 0.0 | 0.0 | 0.00 | 0.00 | 0.00 | 59 | 1014.5 |
| 20260506003758 | 21 | 87 | 0.0 | 0.0 | 0.00 | 0.00 | 0.00 | 58 | 1014.5 |
| 20260506003255 | 21 | 86 | 0.0 | 0.0 | 0.00 | 0.00 | 0.00 | 57 | 1014.4 |
| 20260506003002 | 25 | 0 | 0.0 | 0.0 | 0.00 | 0.00 | 0.00 | 43 | 1011.0 |
| 20260506002751 | 22 | 86 | 0.0 | 1.6 | 0.00 | 0.00 | 0.00 | 56 | 1014.3 |
| 20260506002247 | 22 | 82 | 0.0 | 0.0 | 0.00 | 0.00 | 0.00 | 53 | 1014.1 |
| 20260506001743 | 23 | 91 | 0.0 | 1.6 | 0.00 | 0.00 | 0.00 | 52 | 1014.2 |
| 20260506001241 | 23 | 81 | 0.0 | 0.0 | 0.00 | 0.00 | 0.00 | 50 | 1014.0 |
| 20260506000737 | 23 | 90 | 0.0 | 0.0 | 0.00 | 0.00 | 0.00 | 48 | 1014.0 |
| 20260506000235 | 24 | 90 | 0.0 | 0.0 | 0.00 | 0.00 | 0.00 | 47 | 1014.0 |
| 20260506000002 | 25 | 187 | 0.0 | 0.0 | 0.00 | 0.00 | 0.00 | 43 | 1010.4 |
| 20260505235732 | 25 | 90 | 0.0 | 3.2 | 0.00 | 0.00 | 0.00 | 47 | 1013.8 |
| 20260505235229 | 25 | 86 | 0.0 | 1.6 | 0.00 | 0.00 | 0.00 | 45 | 1013.7 |
| 20260505234726 | 25 | 80 | 0.0 | 1.6 | 0.00 | 0.00 | 0.00 | 44 | 1013.6 |
| 20260505234224 | 25 | 95 | 1.6 | 1.6 | 0.00 | 0.00 | 0.00 | 43 | 1013.8 |
| 20260505233720 | 26 | 112 | 1.6 | 3.2 | 0.00 | 0.00 | 0.00 | 43 | 1013.8 |
| 20260505233218 | 26 | 87 | 0.0 | 1.6 | 0.00 | 0.00 | 0.00 | 42 | 1013.7 |
| 20260505233002 | 26 | 177 | 0.0 | 0.0 | 0.00 | 0.00 | 0.00 | 37 | 1010.4 |
| 20260505232715 | 26 | 65 | 0.0 | 4.8 | 0.00 | 0.00 | 0.00 | 40 | 1013.6 |
| 20260505232212 | 27 | 81 | 0.0 | 3.2 | 0.00 | 0.00 | 0.00 | 40 | 1013.7 |
| 20260505231709 | 27 | 83 | 1.6 | 1.6 | 0.00 | 0.00 | 0.00 | 39 | 1013.5 |
| 20260505231208 | 27 | 269 | 3.2 | 4.8 | 0.00 | 0.00 | 0.00 | 38 | 1013.7 |
| 20260505230706 | 27 | 101 | 1.6 | 9.7 | 0.00 | 0.00 | 0.00 | 38 | 1013.5 |
| 20260505230202 | 28 | 151 | 3.2 | 4.8 | 0.00 | 0.00 | 0.00 | 38 | 1013.6 |
| 20260505230002 | 27 | 187 | 0.0 | 0.0 | 0.00 | 0.00 | 0.00 | 33 | 1010.3 |
| 20260505225658 | 27 | 96 | 1.6 | 1.6 | 0.00 | 0.00 | 0.00 | 37 | 1013.6 |
| 20260505225155 | 27 | 76 | 0.0 | 3.2 | 0.00 | 0.00 | 0.00 | 39 | 1013.7 |
| 20260505224651 | 27 | 140 | 3.2 | 4.8 | 0.00 | 0.00 | 0.00 | 38 | 1013.5 |
| 20260505224149 | 28 | 91 | 3.2 | 4.8 | 0.00 | 0.00 | 0.00 | 38 | 1013.7 |
| 20260505223646 | 28 | 73 | 1.6 | 6.4 | 0.00 | 0.00 | 0.00 | 37 | 1013.8 |
| 20260505223142 | 28 | 67 | 1.6 | 4.8 | 0.00 | 0.00 | 0.00 | 38 | 1013.7 |
| 20260505223002 | 27 | 190 | 0.0 | 0.0 | 0.00 | 0.00 | 0.00 | 34 | 1010.4 |
| 20260505222638 | 28 | 103 | 0.0 | 4.8 | 0.00 | 0.00 | 0.00 | 38 | 1013.8 |
| 20260505222135 | 28 | 130 | 3.2 | 3.2 | 0.00 | 0.00 | 0.00 | 40 | 1013.8 |
| 20260505221632 | 28 | 72 | 1.6 | 4.8 | 0.00 | 0.00 | 0.00 | 38 | 1013.7 |
| 20260505221128 | 28 | 144 | 6.4 | 6.4 | 0.00 | 0.00 | 0.00 | 38 | 1014.1 |
| 20260505220626 | 28 | 52 | 4.8 | 9.7 | 0.00 | 0.00 | 0.00 | 38 | 1014.0 |
| 20260505220123 | 28 | 96 | 0.0 | 9.7 | 0.00 | 0.00 | 0.00 | 37 | 1013.9 |
| 20260505220002 | 27 | 159 | 0.0 | 0.0 | 0.00 | 0.00 | 0.00 | 34 | 1010.8 |
| 20260505215621 | 28 | 76 | 0.0 | 1.6 | 0.00 | 0.00 | 0.00 | 38 | 1014.1 |
| 20260505215119 | 27 | 68 | 1.6 | 6.4 | 0.00 | 0.00 | 0.00 | 41 | 1014.0 |
| 20260505214617 | 27 | 74 | 1.6 | 3.2 | 0.00 | 0.00 | 0.00 | 41 | 1014.0 |
| 20260505214114 | 27 | 87 | 0.0 | 6.4 | 0.00 | 0.00 | 0.00 | 39 | 1014.0 |
| 20260505213611 | 28 | 86 | 1.6 | 4.8 | 0.00 | 0.00 | 0.00 | 39 | 1014.3 |
| 20260505213108 | 28 | 133 | 3.2 | 4.8 | 0.00 | 0.00 | 0.00 | 38 | 1014.1 |
| 20260505213002 | 28 | 139 | 0.0 | 0.0 | 0.00 | 0.00 | 0.00 | 34 | 1010.8 |
| 20260505212603 | 28 | 174 | 3.2 | 6.4 | 0.00 | 0.00 | 0.00 | 38 | 1014.1 |
| 20260505212101 | 28 | 107 | 3.2 | 12.9 | 0.00 | 0.00 | 0.00 | 38 | 1014.3 |
| 20260505211553 | 28 | 84 | 1.6 | 4.8 | 0.00 | 0.00 | 0.00 | 39 | 1014.0 |
| 20260505211050 | 28 | 44 | 3.2 | 4.8 | 0.00 | 0.00 | 0.00 | 39 | 1014.3 |
| 20260505210546 | 28 | 229 | 6.4 | 9.7 | 0.00 | 0.00 | 0.00 | 38 | 1014.1 |
| 20260505210043 | 28 | 114 | 3.2 | 6.4 | 0.00 | 0.00 | 0.00 | 40 | 1014.1 |
| 20260505210002 | 27 | 184 | 0.0 | 0.0 | 0.00 | 0.00 | 0.00 | 35 | 1010.9 |
| 20260505205541 | 27 | 275 | 1.6 | 3.2 | 0.00 | 0.00 | 0.00 | 42 | 1014.2 |
| 20260505205038 | 27 | 87 | 3.2 | 3.2 | 0.00 | 0.00 | 0.00 | 42 | 1014.3 |
| 20260505204535 | 27 | 49 | 1.6 | 3.2 | 0.00 | 0.00 | 0.00 | 42 | 1014.4 |
| 20260505204032 | 27 | 117 | 1.6 | 6.4 | 0.00 | 0.00 | 0.00 | 40 | 1014.4 |
| 20260505203529 | 27 | 190 | 4.8 | 9.7 | 0.00 | 0.00 | 0.00 | 41 | 1014.3 |
| 20260505203026 | 27 | 75 | 1.6 | 6.4 | 0.00 | 0.00 | 0.00 | 41 | 1014.4 |
| 20260505203002 | 27 | 195 | 0.0 | 0.0 | 0.00 | 0.00 | 0.00 | 35 | 1011.1 |
| 20260505202522 | 27 | 273 | 1.6 | 3.2 | 0.00 | 0.00 | 0.00 | 44 | 1014.4 |
| 20260505202018 | 27 | 106 | 1.6 | 4.8 | 0.00 | 0.00 | 0.00 | 41 | 1014.5 |
| 20260505201515 | 28 | 184 | 4.8 | 9.7 | 0.00 | 0.00 | 0.00 | 40 | 1014.5 |
| 20260505201013 | 28 | 86 | 0.0 | 4.8 | 0.00 | 0.00 | 0.00 | 40 | 1014.5 |
| 20260505200510 | 28 | 95 | 3.2 | 4.8 | 0.00 | 0.00 | 0.00 | 40 | 1014.7 |
| 20260505200007 | 28 | 47 | 1.6 | 11.3 | 0.00 | 0.00 | 0.00 | 39 | 1014.7 |
| 20260505200002 | 27 | 171 | 0.0 | 0.0 | 0.00 | 0.00 | 0.00 | 35 | 1011.4 |
| 20260505195503 | 28 | 77 | 3.2 | 4.8 | 0.00 | 0.00 | 0.00 | 37 | 1014.9 |
| 20260505195001 | 28 | 128 | 4.8 | 6.4 | 0.00 | 0.00 | 0.00 | 38 | 1015.0 |
| 20260505194458 | 28 | 85 | 1.6 | 1.6 | 0.00 | 0.00 | 0.00 | 41 | 1014.8 |
| 20260505193958 | 28 | 26 | 3.2 | 4.8 | 0.00 | 0.00 | 0.00 | 37 | 1015.1 |
| 20260505193456 | 27 | 181 | 1.6 | 6.4 | 0.00 | 0.00 | 0.00 | 40 | 1015.0 |
| 20260505192953 | 27 | 313 | 4.8 | 6.4 | 0.00 | 0.00 | 0.00 | 39 | 1015.2 |
| 20260505192451 | 27 | 139 | 1.6 | 6.4 | 0.00 | 0.00 | 0.00 | 41 | 1015.5 |
| 20260505191948 | 27 | 105 | 1.6 | 4.8 | 0.00 | 0.00 | 0.00 | 41 | 1015.4 |
| 20260505191447 | 27 | 284 | 6.4 | 9.7 | 0.00 | 0.00 | 0.00 | 41 | 1015.5 |
| 20260505190943 | 28 | 195 | 3.2 | 4.8 | 0.00 | 0.00 | 0.00 | 40 | 1015.5 |
| 20260505190438 | 28 | 80 | 1.6 | 4.8 | 0.00 | 0.00 | 0.00 | 43 | 1015.6 |
| 20260505185934 | 28 | 66 | 3.2 | 12.9 | 0.00 | 0.00 | 0.00 | 42 | 1015.6 |
| 20260505185432 | 27 | 284 | 3.2 | 4.8 | 0.00 | 0.00 | 0.00 | 43 | 1015.8 |
| 20260505184928 | 27 | 101 | 1.6 | 3.2 | 0.00 | 0.00 | 0.00 | 43 | 1015.9 |
| 20260505184425 | 27 | 356 | 3.2 | 4.8 | 0.00 | 0.00 | 0.00 | 42 | 1015.8 |
| 20260505183917 | 27 | 23 | 1.6 | 4.8 | 0.00 | 0.00 | 0.00 | 43 | 1016.1 |
| 20260505183414 | 27 | 118 | 6.4 | 9.7 | 0.00 | 0.00 | 0.00 | 42 | 1016.3 |
| 20260505182910 | 27 | 158 | 1.6 | 4.8 | 0.00 | 0.00 | 0.00 | 44 | 1016.2 |
| 20260505182407 | 27 | 107 | 1.6 | 11.3 | 0.00 | 0.00 | 0.00 | 42 | 1016.3 |
| 20260505181903 | 27 | 117 | 3.2 | 9.7 | 0.00 | 0.00 | 0.00 | 42 | 1016.4 |
| 20260505181400 | 27 | 256 | 4.8 | 9.7 | 0.00 | 0.00 | 0.00 | 43 | 1016.2 |
| 20260505180856 | 27 | 230 | 8.0 | 9.7 | 0.00 | 0.00 | 0.00 | 43 | 1016.4 |
| 20260505180353 | 26 | 214 | 4.8 | 9.7 | 0.00 | 0.00 | 0.00 | 44 | 1016.4 |
| 20260505180003 | 26 | 179 | 0.0 | 0.0 | 0.00 | 0.00 | 0.00 | 41 | 1013.1 |
| 20260505175850 | 26 | 79 | 1.6 | 4.8 | 0.00 | 0.00 | 0.00 | 45 | 1016.5 |
| 20260505175346 | 26 | 174 | 3.2 | 4.8 | 0.00 | 0.00 | 0.00 | 45 | 1016.5 |
| 20260505174843 | 27 | 106 | 6.4 | 11.3 | 0.00 | 0.00 | 0.00 | 43 | 1016.5 |
| 20260505174341 | 27 | 234 | 3.2 | 6.4 | 0.00 | 0.00 | 0.00 | 44 | 1016.5 |
| 20260505173836 | 26 | 255 | 3.2 | 6.4 | 0.00 | 0.00 | 0.00 | 47 | 1016.7 |
| 20260505173332 | 26 | 67 | 3.2 | 6.4 | 0.00 | 0.00 | 0.00 | 44 | 1016.6 |
| 20260505173002 | 26 | 176 | 0.0 | 0.0 | 0.00 | 0.00 | 0.00 | 38 | 1013.2 |
| 20260505172825 | 26 | 127 | 3.2 | 4.8 | 0.00 | 0.00 | 0.00 | 43 | 1016.7 |
| 20260505172322 | 26 | 266 | 3.2 | 4.8 | 0.00 | 0.00 | 0.00 | 44 | 1016.8 |
| 20260505171816 | 26 | 232 | 4.8 | 11.3 | 0.00 | 0.00 | 0.00 | 44 | 1016.7 |
| 20260505171313 | 26 | 58 | 1.6 | 14.5 | 0.00 | 0.00 | 0.00 | 44 | 1016.7 |
| 20260505170809 | 26 | 113 | 1.6 | 3.2 | 0.00 | 0.00 | 0.00 | 45 | 1016.8 |
| 20260505170307 | 26 | 123 | 1.6 | 6.4 | 0.00 | 0.00 | 0.00 | 43 | 1016.9 |
| 20260505170002 | 25 | 185 | 0.0 | 0.0 | 0.00 | 0.00 | 0.00 | 41 | 1013.6 |
| 20260505165802 | 26 | 23 | 1.6 | 4.8 | 0.00 | 0.00 | 0.00 | 46 | 1016.9 |
| 20260505165258 | 26 | 254 | 4.8 | 11.3 | 0.00 | 0.00 | 0.00 | 47 | 1017.0 |
| 20260505164753 | 26 | 96 | 1.6 | 3.2 | 0.00 | 0.00 | 0.00 | 49 | 1017.0 |
| 20260505164251 | 26 | 96 | 3.2 | 6.4 | 0.00 | 0.00 | 0.00 | 48 | 1017.2 |
| 20260505163749 | 25 | 101 | 3.2 | 6.4 | 0.00 | 0.00 | 0.00 | 49 | 1017.0 |
| 20260505163247 | 25 | 150 | 1.6 | 4.8 | 0.00 | 0.00 | 0.00 | 50 | 1017.2 |
| 20260505162745 | 25 | 81 | 0.0 | 6.4 | 0.00 | 0.00 | 0.00 | 52 | 1017.2 |
| 20260505162241 | 26 | 310 | 3.2 | 9.7 | 0.00 | 0.00 | 0.00 | 49 | 1017.1 |
| 20260505161738 | 25 | 15 | 0.0 | 1.6 | 0.00 | 0.00 | 0.00 | 52 | 1017.2 |
| 20260505161236 | 24 | 88 | 1.6 | 3.2 | 0.00 | 0.00 | 0.00 | 55 | 1017.3 |
| 20260505160733 | 25 | 95 | 4.8 | 14.5 | 0.00 | 0.00 | 0.00 | 52 | 1017.3 |
| 20260505160231 | 24 | 90 | 1.6 | 3.2 | 0.00 | 0.00 | 0.00 | 53 | 1017.5 |
| 20260505153210 | 22 | 85 | 0.0 | 9.7 | 0.00 | 0.00 | 0.00 | 59 | 1017.3 |
| 20260505153003 | 22 | 222 | 0.0 | 0.0 | 0.00 | 0.00 | 0.00 | 57 | 1014.0 |
| 20260505152706 | 22 | 265 | 3.2 | 6.4 | 0.00 | 0.00 | 0.00 | 61 | 1017.4 |
| 20260505152203 | 22 | 90 | 1.6 | 6.4 | 0.00 | 0.00 | 0.00 | 60 | 1017.4 |
| 20260505151658 | 22 | 10 | 1.6 | 9.7 | 0.00 | 0.00 | 0.00 | 61 | 1017.4 |
| 20260505151155 | 22 | 245 | 6.4 | 11.3 | 0.00 | 0.00 | 0.00 | 62 | 1017.5 |
| 20260505150650 | 22 | 187 | 1.6 | 6.4 | 0.00 | 0.00 | 0.00 | 62 | 1017.4 |
| 20260505150148 | 21 | 92 | 1.6 | 4.8 | 0.00 | 0.00 | 0.00 | 63 | 1017.5 |
| 20260505140616 | 19 | 78 | 0.0 | 1.6 | 0.00 | 0.00 | 0.00 | 71 | 1017.3 |
| 20260505140113 | 19 | 99 | 3.2 | 3.2 | 0.00 | 0.00 | 0.00 | 71 | 1017.3 |
| 20260505125030 | 16 | 83 | 0.0 | 3.2 | 0.00 | 0.00 | 0.00 | 81 | 1017.0 |
| 20260505124526 | 16 | 67 | 0.0 | 1.6 | 0.00 | 0.00 | 0.00 | 82 | 1017.1 |
| 20260505124023 | 16 | 101 | 0.0 | 1.6 | 0.00 | 0.00 | 0.00 | 83 | 1017.0 |
| 20260505123519 | 16 | 83 | 0.0 | 1.6 | 0.00 | 0.00 | 0.00 | 84 | 1016.9 |
| 20260505123015 | 15 | 294 | 1.6 | 4.8 | 0.00 | 0.00 | 0.00 | 85 | 1017.0 |
| 20260505123002 | 14 | 193 | 0.0 | 0.0 | 0.00 | 0.00 | 0.00 | 92 | 1013.7 |
| 20260505122513 | 15 | 92 | 0.0 | 0.0 | 0.00 | 0.00 | 0.00 | 86 | 1016.9 |
| 20260505122009 | 15 | 73 | 1.6 | 1.6 | 0.00 | 0.00 | 0.00 | 86 | 1016.9 |
| 20260505121506 | 15 | 85 | 0.0 | 0.0 | 0.00 | 0.00 | 0.00 | 88 | 1016.6 |
| 20260505121002 | 14 | 83 | 0.0 | 0.0 | 0.00 | 0.00 | 0.00 | 90 | 1016.6 |
| 20260505120459 | 13 | 82 | 0.0 | 0.0 | 0.00 | 0.00 | 0.00 | 91 | 1016.4 |
| 20260505120004 | 12 | 187 | 0.0 | 0.0 | 0.00 | 0.00 | 0.00 | 96 | 1013.2 |
| 20260505115958 | 13 | 85 | 0.0 | 1.6 | 0.00 | 0.00 | 0.00 | 93 | 1016.7 |
| 20260505115454 | 13 | 84 | 0.0 | 0.0 | 0.00 | 0.00 | 0.00 | 94 | 1016.6 |
| 20260505114953 | 12 | 93 | 0.0 | 1.6 | 0.00 | 0.00 | 0.00 | 95 | 1016.5 |
| 20260505114448 | 12 | 91 | 0.0 | 0.0 | 0.00 | 0.00 | 0.00 | 96 | 1016.7 |
| 20260505113945 | 12 | 91 | 0.0 | 0.0 | 0.00 | 0.00 | 0.00 | 95 | 1016.4 |